sensor_id;sensor_type;location;lat;lon;timestamp;P1;durP1;ratioP1;P2;durP2;ratioP2
27985;SDS011;15453;53.692;10.168;2022-11-20T00:00:28;6.65;;;4.20;;
27985;SDS011;15453;53.692;10.168;2022-11-20T00:02:53;5.85;;;3.30;;
27985;SDS011;15453;53.692;10.168;2022-11-20T00:05:19;5.15;;;3.35;;
27985;SDS011;15453;53.692;10.168;2022-11-20T00:07:45;5.95;;;3.58;;
27985;SDS011;15453;53.692;10.168;2022-11-20T00:10:11;5.03;;;3.40;;
27985;SDS011;15453;53.692;10.168;2022-11-20T00:12:36;5.88;;;3.60;;
27985;SDS011;15453;53.692;10.168;2022-11-20T00:15:01;5.82;;;3.53;;
27985;SDS011;15453;53.692;10.168;2022-11-20T00:17:27;4.90;;;3.25;;
27985;SDS011;15453;53.692;10.168;2022-11-20T00:19:52;8.65;;;3.45;;
27985;SDS011;15453;53.692;10.168;2022-11-20T00:22:17;5.97;;;3.42;;
27985;SDS011;15453;53.692;10.168;2022-11-20T00:24:43;5.88;;;3.53;;
27985;SDS011;15453;53.692;10.168;2022-11-20T00:27:08;6.30;;;3.22;;
27985;SDS011;15453;53.692;10.168;2022-11-20T00:29:33;6.07;;;3.58;;
27985;SDS011;15453;53.692;10.168;2022-11-20T00:31:58;5.95;;;3.20;;
27985;SDS011;15453;53.692;10.168;2022-11-20T00:34:23;5.18;;;3.30;;
27985;SDS011;15453;53.692;10.168;2022-11-20T00:36:49;5.50;;;3.10;;
27985;SDS011;15453;53.692;10.168;2022-11-20T00:39:14;6.78;;;3.65;;
27985;SDS011;15453;53.692;10.168;2022-11-20T00:41:39;9.52;;;3.20;;
27985;SDS011;15453;53.692;10.168;2022-11-20T00:44:04;5.63;;;3.35;;
27985;SDS011;15453;53.692;10.168;2022-11-20T00:46:30;5.78;;;3.15;;
27985;SDS011;15453;53.692;10.168;2022-11-20T00:48:55;4.97;;;3.50;;
27985;SDS011;15453;53.692;10.168;2022-11-20T00:51:22;7.75;;;4.10;;
27985;SDS011;15453;53.692;10.168;2022-11-20T00:53:48;6.53;;;4.00;;
27985;SDS011;15453;53.692;10.168;2022-11-20T00:56:15;6.97;;;3.85;;
27985;SDS011;15453;53.692;10.168;2022-11-20T00:58:43;7.80;;;3.80;;
27985;SDS011;15453;53.692;10.168;2022-11-20T01:03:39;5.60;;;3.92;;
27985;SDS011;15453;53.692;10.168;2022-11-20T01:06:10;5.32;;;3.28;;
27985;SDS011;15453;53.692;10.168;2022-11-20T01:08:38;7.22;;;3.92;;
27985;SDS011;15453;53.692;10.168;2022-11-20T01:11:11;9.55;;;4.05;;
27985;SDS011;15453;53.692;10.168;2022-11-20T01:13:39;6.72;;;3.92;;
27985;SDS011;15453;53.692;10.168;2022-11-20T01:16:07;7.78;;;3.88;;
27985;SDS011;15453;53.692;10.168;2022-11-20T01:18:37;5.93;;;3.55;;
27985;SDS011;15453;53.692;10.168;2022-11-20T01:21:04;8.13;;;4.07;;
27985;SDS011;15453;53.692;10.168;2022-11-20T01:23:35;8.25;;;3.60;;
27985;SDS011;15453;53.692;10.168;2022-11-20T01:26:03;5.25;;;3.35;;
27985;SDS011;15453;53.692;10.168;2022-11-20T01:28:30;6.57;;;3.70;;
27985;SDS011;15453;53.692;10.168;2022-11-20T01:30:56;7.28;;;4.07;;
27985;SDS011;15453;53.692;10.168;2022-11-20T01:33:22;6.75;;;3.42;;
27985;SDS011;15453;53.692;10.168;2022-11-20T01:35:47;6.85;;;3.45;;
27985;SDS011;15453;53.692;10.168;2022-11-20T01:38:12;6.78;;;3.55;;
27985;SDS011;15453;53.692;10.168;2022-11-20T01:40:37;7.20;;;3.60;;
27985;SDS011;15453;53.692;10.168;2022-11-20T01:43:13;4.68;;;3.10;;
27985;SDS011;15453;53.692;10.168;2022-11-20T01:48:41;5.63;;;3.28;;
27985;SDS011;15453;53.692;10.168;2022-11-20T01:51:19;5.97;;;3.55;;
27985;SDS011;15453;53.692;10.168;2022-11-20T01:53:45;5.38;;;3.42;;
27985;SDS011;15453;53.692;10.168;2022-11-20T01:56:11;4.72;;;3.10;;
27985;SDS011;15453;53.692;10.168;2022-11-20T01:58:39;10.05;;;3.67;;
27985;SDS011;15453;53.692;10.168;2022-11-20T02:01:10;5.68;;;3.63;;
27985;SDS011;15453;53.692;10.168;2022-11-20T02:03:35;5.20;;;3.55;;
27985;SDS011;15453;53.692;10.168;2022-11-20T02:06:10;5.10;;;3.58;;
27985;SDS011;15453;53.692;10.168;2022-11-20T02:08:39;8.10;;;3.97;;
27985;SDS011;15453;53.692;10.168;2022-11-20T02:11:05;5.97;;;3.40;;
27985;SDS011;15453;53.692;10.168;2022-11-20T02:13:30;5.85;;;3.92;;
27985;SDS011;15453;53.692;10.168;2022-11-20T02:16:08;5.13;;;3.53;;
27985;SDS011;15453;53.692;10.168;2022-11-20T02:18:38;7.20;;;3.58;;
27985;SDS011;15453;53.692;10.168;2022-11-20T02:21:24;5.43;;;3.40;;
27985;SDS011;15453;53.692;10.168;2022-11-20T02:24:00;5.95;;;3.15;;
27985;SDS011;15453;53.692;10.168;2022-11-20T02:26:28;6.72;;;3.85;;
27985;SDS011;15453;53.692;10.168;2022-11-20T02:28:55;5.78;;;3.22;;
27985;SDS011;15453;53.692;10.168;2022-11-20T02:31:21;5.25;;;3.60;;
27985;SDS011;15453;53.692;10.168;2022-11-20T02:33:47;6.95;;;3.55;;
27985;SDS011;15453;53.692;10.168;2022-11-20T02:36:14;5.80;;;3.40;;
27985;SDS011;15453;53.692;10.168;2022-11-20T02:38:41;5.38;;;3.55;;
27985;SDS011;15453;53.692;10.168;2022-11-20T02:44:29;5.80;;;3.45;;
27985;SDS011;15453;53.692;10.168;2022-11-20T02:46:56;5.22;;;3.58;;
27985;SDS011;15453;53.692;10.168;2022-11-20T02:49:22;5.40;;;3.67;;
27985;SDS011;15453;53.692;10.168;2022-11-20T02:51:48;6.57;;;3.30;;
27985;SDS011;15453;53.692;10.168;2022-11-20T02:54:13;5.18;;;3.17;;
27985;SDS011;15453;53.692;10.168;2022-11-20T02:56:38;4.65;;;3.47;;
27985;SDS011;15453;53.692;10.168;2022-11-20T02:59:04;4.68;;;3.65;;
27985;SDS011;15453;53.692;10.168;2022-11-20T03:01:29;5.75;;;3.53;;
27985;SDS011;15453;53.692;10.168;2022-11-20T03:03:54;5.95;;;3.25;;
27985;SDS011;15453;53.692;10.168;2022-11-20T03:06:20;5.35;;;3.53;;
27985;SDS011;15453;53.692;10.168;2022-11-20T03:08:46;6.00;;;3.28;;
27985;SDS011;15453;53.692;10.168;2022-11-20T03:11:11;5.32;;;3.47;;
27985;SDS011;15453;53.692;10.168;2022-11-20T03:13:36;5.38;;;3.17;;
27985;SDS011;15453;53.692;10.168;2022-11-20T03:16:06;5.22;;;3.50;;
27985;SDS011;15453;53.692;10.168;2022-11-20T03:18:32;4.90;;;3.13;;
27985;SDS011;15453;53.692;10.168;2022-11-20T03:20:58;5.03;;;3.30;;
27985;SDS011;15453;53.692;10.168;2022-11-20T03:23:24;4.45;;;3.20;;
27985;SDS011;15453;53.692;10.168;2022-11-20T03:25:49;5.68;;;3.28;;
27985;SDS011;15453;53.692;10.168;2022-11-20T03:28:14;4.82;;;3.10;;
27985;SDS011;15453;53.692;10.168;2022-11-20T03:30:39;7.28;;;3.55;;
27985;SDS011;15453;53.692;10.168;2022-11-20T03:33:05;5.65;;;3.50;;
27985;SDS011;15453;53.692;10.168;2022-11-20T03:35:30;5.15;;;3.70;;
27985;SDS011;15453;53.692;10.168;2022-11-20T03:37:55;5.18;;;3.50;;
27985;SDS011;15453;53.692;10.168;2022-11-20T03:40:22;4.47;;;3.58;;
27985;SDS011;15453;53.692;10.168;2022-11-20T03:42:47;4.90;;;3.30;;
27985;SDS011;15453;53.692;10.168;2022-11-20T03:45:16;3.95;;;3.10;;
27985;SDS011;15453;53.692;10.168;2022-11-20T03:47:43;6.50;;;3.97;;
27985;SDS011;15453;53.692;10.168;2022-11-20T03:50:09;4.75;;;3.22;;
27985;SDS011;15453;53.692;10.168;2022-11-20T03:52:37;5.90;;;3.80;;
27985;SDS011;15453;53.692;10.168;2022-11-20T03:55:02;5.93;;;3.30;;
27985;SDS011;15453;53.692;10.168;2022-11-20T03:57:28;6.38;;;3.20;;
27985;SDS011;15453;53.692;10.168;2022-11-20T03:59:53;4.90;;;3.13;;
27985;SDS011;15453;53.692;10.168;2022-11-20T04:02:18;6.32;;;3.50;;
27985;SDS011;15453;53.692;10.168;2022-11-20T04:04:43;6.00;;;3.55;;
27985;SDS011;15453;53.692;10.168;2022-11-20T04:07:09;4.38;;;2.88;;
27985;SDS011;15453;53.692;10.168;2022-11-20T04:09:34;5.45;;;3.55;;
27985;SDS011;15453;53.692;10.168;2022-11-20T04:12:00;5.18;;;3.22;;
27985;SDS011;15453;53.692;10.168;2022-11-20T04:14:25;5.53;;;3.58;;
27985;SDS011;15453;53.692;10.168;2022-11-20T04:16:50;7.47;;;3.70;;
27985;SDS011;15453;53.692;10.168;2022-11-20T04:19:15;4.53;;;3.13;;
27985;SDS011;15453;53.692;10.168;2022-11-20T04:21:42;6.05;;;3.22;;
27985;SDS011;15453;53.692;10.168;2022-11-20T04:24:08;6.40;;;3.47;;
27985;SDS011;15453;53.692;10.168;2022-11-20T04:26:35;4.55;;;3.60;;
27985;SDS011;15453;53.692;10.168;2022-11-20T04:29:00;5.95;;;3.25;;
27985;SDS011;15453;53.692;10.168;2022-11-20T04:31:29;4.25;;;3.25;;
27985;SDS011;15453;53.692;10.168;2022-11-20T04:33:58;6.10;;;4.00;;
27985;SDS011;15453;53.692;10.168;2022-11-20T04:36:25;5.60;;;3.40;;
27985;SDS011;15453;53.692;10.168;2022-11-20T04:38:55;6.03;;;3.33;;
27985;SDS011;15453;53.692;10.168;2022-11-20T04:41:22;6.80;;;3.40;;
27985;SDS011;15453;53.692;10.168;2022-11-20T04:43:50;5.05;;;3.35;;
27985;SDS011;15453;53.692;10.168;2022-11-20T04:46:17;8.43;;;3.83;;
27985;SDS011;15453;53.692;10.168;2022-11-20T04:48:43;4.65;;;3.33;;
27985;SDS011;15453;53.692;10.168;2022-11-20T04:51:09;7.97;;;3.70;;
27985;SDS011;15453;53.692;10.168;2022-11-20T04:53:34;6.85;;;3.60;;
27985;SDS011;15453;53.692;10.168;2022-11-20T04:56:03;4.25;;;3.08;;
27985;SDS011;15453;53.692;10.168;2022-11-20T04:58:30;5.95;;;3.28;;
27985;SDS011;15453;53.692;10.168;2022-11-20T05:01:03;5.13;;;3.03;;
27985;SDS011;15453;53.692;10.168;2022-11-20T05:03:32;5.03;;;3.45;;
27985;SDS011;15453;53.692;10.168;2022-11-20T05:06:01;5.18;;;3.50;;
27985;SDS011;15453;53.692;10.168;2022-11-20T05:08:29;6.10;;;3.35;;
27985;SDS011;15453;53.692;10.168;2022-11-20T05:11:02;4.32;;;3.20;;
27985;SDS011;15453;53.692;10.168;2022-11-20T05:13:31;4.63;;;3.13;;
27985;SDS011;15453;53.692;10.168;2022-11-20T05:16:03;3.70;;;3.10;;
27985;SDS011;15453;53.692;10.168;2022-11-20T05:18:30;6.07;;;3.70;;
27985;SDS011;15453;53.692;10.168;2022-11-20T05:20:56;6.82;;;3.85;;
27985;SDS011;15453;53.692;10.168;2022-11-20T05:23:21;4.65;;;3.40;;
27985;SDS011;15453;53.692;10.168;2022-11-20T05:25:47;8.50;;;2.92;;
27985;SDS011;15453;53.692;10.168;2022-11-20T05:28:12;7.22;;;3.30;;
27985;SDS011;15453;53.692;10.168;2022-11-20T05:30:37;7.38;;;3.30;;
27985;SDS011;15453;53.692;10.168;2022-11-20T05:33:02;5.68;;;3.33;;
27985;SDS011;15453;53.692;10.168;2022-11-20T05:35:28;5.03;;;3.03;;
27985;SDS011;15453;53.692;10.168;2022-11-20T05:37:53;7.82;;;3.28;;
27985;SDS011;15453;53.692;10.168;2022-11-20T05:40:18;4.38;;;3.05;;
27985;SDS011;15453;53.692;10.168;2022-11-20T05:42:43;5.05;;;3.45;;
27985;SDS011;15453;53.692;10.168;2022-11-20T05:45:09;5.28;;;3.10;;
27985;SDS011;15453;53.692;10.168;2022-11-20T05:47:34;5.05;;;2.90;;
27985;SDS011;15453;53.692;10.168;2022-11-20T05:50:00;7.53;;;3.17;;
27985;SDS011;15453;53.692;10.168;2022-11-20T05:52:29;5.00;;;2.63;;
27985;SDS011;15453;53.692;10.168;2022-11-20T05:54:54;4.72;;;3.20;;
27985;SDS011;15453;53.692;10.168;2022-11-20T05:57:19;5.70;;;3.30;;
27985;SDS011;15453;53.692;10.168;2022-11-20T05:59:45;4.93;;;3.20;;
27985;SDS011;15453;53.692;10.168;2022-11-20T06:02:10;5.18;;;3.15;;
27985;SDS011;15453;53.692;10.168;2022-11-20T06:04:35;4.88;;;3.10;;
27985;SDS011;15453;53.692;10.168;2022-11-20T06:07:00;5.63;;;3.10;;
27985;SDS011;15453;53.692;10.168;2022-11-20T06:09:26;5.88;;;3.58;;
27985;SDS011;15453;53.692;10.168;2022-11-20T06:11:51;7.25;;;3.65;;
27985;SDS011;15453;53.692;10.168;2022-11-20T06:14:16;5.80;;;3.08;;
27985;SDS011;15453;53.692;10.168;2022-11-20T06:16:41;5.10;;;3.08;;
27985;SDS011;15453;53.692;10.168;2022-11-20T06:19:07;3.97;;;3.00;;
27985;SDS011;15453;53.692;10.168;2022-11-20T06:21:32;5.60;;;3.22;;
27985;SDS011;15453;53.692;10.168;2022-11-20T06:23:57;5.57;;;2.90;;
27985;SDS011;15453;53.692;10.168;2022-11-20T06:26:24;6.53;;;3.13;;
27985;SDS011;15453;53.692;10.168;2022-11-20T06:28:51;6.32;;;2.90;;
27985;SDS011;15453;53.692;10.168;2022-11-20T06:31:18;6.10;;;3.20;;
27985;SDS011;15453;53.692;10.168;2022-11-20T06:33:45;6.97;;;3.20;;
27985;SDS011;15453;53.692;10.168;2022-11-20T06:36:11;3.83;;;2.78;;
27985;SDS011;15453;53.692;10.168;2022-11-20T06:38:38;5.13;;;3.35;;
27985;SDS011;15453;53.692;10.168;2022-11-20T06:41:04;3.97;;;3.05;;
27985;SDS011;15453;53.692;10.168;2022-11-20T06:43:30;7.00;;;3.42;;
27985;SDS011;15453;53.692;10.168;2022-11-20T06:45:56;10.05;;;3.50;;
27985;SDS011;15453;53.692;10.168;2022-11-20T06:48:22;5.10;;;3.45;;
27985;SDS011;15453;53.692;10.168;2022-11-20T06:50:49;6.90;;;3.83;;
27985;SDS011;15453;53.692;10.168;2022-11-20T06:53:14;5.20;;;3.38;;
27985;SDS011;15453;53.692;10.168;2022-11-20T06:55:43;5.72;;;4.30;;
27985;SDS011;15453;53.692;10.168;2022-11-20T06:58:09;5.82;;;4.35;;
27985;SDS011;15453;53.692;10.168;2022-11-20T07:00:35;8.18;;;4.05;;
27985;SDS011;15453;53.692;10.168;2022-11-20T07:03:03;6.65;;;4.15;;
27985;SDS011;15453;53.692;10.168;2022-11-20T07:05:29;8.13;;;4.18;;
27985;SDS011;15453;53.692;10.168;2022-11-20T07:07:57;5.20;;;3.55;;
27985;SDS011;15453;53.692;10.168;2022-11-20T07:10:23;7.15;;;4.70;;
27985;SDS011;15453;53.692;10.168;2022-11-20T07:12:49;6.65;;;4.22;;
27985;SDS011;15453;53.692;10.168;2022-11-20T07:15:15;7.45;;;4.40;;
27985;SDS011;15453;53.692;10.168;2022-11-20T07:17:41;6.90;;;4.72;;
27985;SDS011;15453;53.692;10.168;2022-11-20T07:20:06;8.05;;;4.40;;
27985;SDS011;15453;53.692;10.168;2022-11-20T07:22:31;5.63;;;4.32;;
27985;SDS011;15453;53.692;10.168;2022-11-20T07:24:57;7.13;;;4.10;;
27985;SDS011;15453;53.692;10.168;2022-11-20T07:27:22;7.40;;;4.03;;
27985;SDS011;15453;53.692;10.168;2022-11-20T07:29:47;7.25;;;4.97;;
27985;SDS011;15453;53.692;10.168;2022-11-20T07:32:12;6.93;;;4.03;;
27985;SDS011;15453;53.692;10.168;2022-11-20T07:34:38;6.45;;;4.00;;
27985;SDS011;15453;53.692;10.168;2022-11-20T07:37:03;6.70;;;4.03;;
27985;SDS011;15453;53.692;10.168;2022-11-20T07:39:28;7.70;;;3.97;;
27985;SDS011;15453;53.692;10.168;2022-11-20T07:41:53;6.28;;;4.05;;
27985;SDS011;15453;53.692;10.168;2022-11-20T07:44:19;6.97;;;4.10;;
27985;SDS011;15453;53.692;10.168;2022-11-20T07:46:44;7.43;;;4.85;;
27985;SDS011;15453;53.692;10.168;2022-11-20T07:49:09;8.50;;;4.10;;
27985;SDS011;15453;53.692;10.168;2022-11-20T07:51:34;6.43;;;4.13;;
27985;SDS011;15453;53.692;10.168;2022-11-20T07:53:59;8.40;;;4.50;;
27985;SDS011;15453;53.692;10.168;2022-11-20T07:56:25;7.35;;;4.03;;
27985;SDS011;15453;53.692;10.168;2022-11-20T07:58:50;5.97;;;3.92;;
27985;SDS011;15453;53.692;10.168;2022-11-20T08:01:15;4.97;;;3.67;;
27985;SDS011;15453;53.692;10.168;2022-11-20T08:03:40;7.35;;;4.35;;
27985;SDS011;15453;53.692;10.168;2022-11-20T08:06:06;4.95;;;3.88;;
27985;SDS011;15453;53.692;10.168;2022-11-20T08:08:31;5.60;;;3.88;;
27985;SDS011;15453;53.692;10.168;2022-11-20T08:10:57;5.90;;;3.83;;
27985;SDS011;15453;53.692;10.168;2022-11-20T08:13:42;5.30;;;4.03;;
27985;SDS011;15453;53.692;10.168;2022-11-20T08:16:27;5.22;;;3.55;;
27985;SDS011;15453;53.692;10.168;2022-11-20T08:18:52;5.47;;;3.83;;
27985;SDS011;15453;53.692;10.168;2022-11-20T08:21:18;6.45;;;3.80;;
27985;SDS011;15453;53.692;10.168;2022-11-20T08:23:43;5.78;;;3.65;;
27985;SDS011;15453;53.692;10.168;2022-11-20T08:26:08;6.03;;;3.90;;
27985;SDS011;15453;53.692;10.168;2022-11-20T08:28:33;4.72;;;3.90;;
27985;SDS011;15453;53.692;10.168;2022-11-20T08:30:59;4.28;;;3.40;;
27985;SDS011;15453;53.692;10.168;2022-11-20T08:33:25;5.32;;;3.90;;
27985;SDS011;15453;53.692;10.168;2022-11-20T08:35:51;6.65;;;3.58;;
27985;SDS011;15453;53.692;10.168;2022-11-20T08:38:16;6.57;;;4.22;;
27985;SDS011;15453;53.692;10.168;2022-11-20T08:40:42;4.78;;;3.42;;
27985;SDS011;15453;53.692;10.168;2022-11-20T08:43:27;6.50;;;4.25;;
27985;SDS011;15453;53.692;10.168;2022-11-20T08:45:52;6.57;;;4.22;;
27985;SDS011;15453;53.692;10.168;2022-11-20T08:48:17;4.72;;;3.53;;
27985;SDS011;15453;53.692;10.168;2022-11-20T08:50:43;6.05;;;3.80;;
27985;SDS011;15453;53.692;10.168;2022-11-20T08:53:08;4.95;;;3.70;;
27985;SDS011;15453;53.692;10.168;2022-11-20T08:55:33;5.88;;;3.97;;
27985;SDS011;15453;53.692;10.168;2022-11-20T08:58:03;6.28;;;3.97;;
27985;SDS011;15453;53.692;10.168;2022-11-20T09:00:29;6.00;;;3.63;;
27985;SDS011;15453;53.692;10.168;2022-11-20T09:02:54;5.20;;;4.03;;
27985;SDS011;15453;53.692;10.168;2022-11-20T09:05:20;5.47;;;3.70;;
27985;SDS011;15453;53.692;10.168;2022-11-20T09:07:45;5.90;;;3.85;;
27985;SDS011;15453;53.692;10.168;2022-11-20T09:10:10;4.75;;;3.60;;
27985;SDS011;15453;53.692;10.168;2022-11-20T09:12:35;8.18;;;4.25;;
27985;SDS011;15453;53.692;10.168;2022-11-20T09:15:01;5.25;;;3.55;;
27985;SDS011;15453;53.692;10.168;2022-11-20T09:17:26;5.88;;;4.10;;
27985;SDS011;15453;53.692;10.168;2022-11-20T09:19:51;5.97;;;3.90;;
27985;SDS011;15453;53.692;10.168;2022-11-20T09:22:16;4.88;;;3.55;;
27985;SDS011;15453;53.692;10.168;2022-11-20T09:24:41;8.60;;;3.90;;
27985;SDS011;15453;53.692;10.168;2022-11-20T09:27:07;5.25;;;3.70;;
27985;SDS011;15453;53.692;10.168;2022-11-20T09:29:33;4.43;;;3.35;;
27985;SDS011;15453;53.692;10.168;2022-11-20T09:31:58;6.32;;;3.30;;
27985;SDS011;15453;53.692;10.168;2022-11-20T09:34:23;4.88;;;3.13;;
27985;SDS011;15453;53.692;10.168;2022-11-20T09:36:48;6.05;;;3.28;;
27985;SDS011;15453;53.692;10.168;2022-11-20T09:39:14;4.72;;;3.70;;
27985;SDS011;15453;53.692;10.168;2022-11-20T09:46:55;4.53;;;3.45;;
27985;SDS011;15453;53.692;10.168;2022-11-20T09:49:46;4.13;;;3.65;;
27985;SDS011;15453;53.692;10.168;2022-11-20T09:52:31;4.22;;;3.50;;
27985;SDS011;15453;53.692;10.168;2022-11-20T09:55:04;4.70;;;3.50;;
27985;SDS011;15453;53.692;10.168;2022-11-20T09:57:38;4.35;;;3.20;;
27985;SDS011;15453;53.692;10.168;2022-11-20T10:00:09;6.43;;;3.75;;
27985;SDS011;15453;53.692;10.168;2022-11-20T10:02:44;4.65;;;3.63;;
27985;SDS011;15453;53.692;10.168;2022-11-20T10:05:27;4.30;;;3.38;;
27985;SDS011;15453;53.692;10.168;2022-11-20T10:07:58;4.80;;;3.40;;
27985;SDS011;15453;53.692;10.168;2022-11-20T10:10:44;3.17;;;2.88;;
27985;SDS011;15453;53.692;10.168;2022-11-20T10:18:39;6.05;;;3.60;;
27985;SDS011;15453;53.692;10.168;2022-11-20T10:24:42;4.18;;;3.25;;
27985;SDS011;15453;53.692;10.168;2022-11-20T10:30:10;4.65;;;3.00;;
27985;SDS011;15453;53.692;10.168;2022-11-20T10:32:39;4.63;;;3.60;;
27985;SDS011;15453;53.692;10.168;2022-11-20T10:37:39;4.30;;;2.95;;
27985;SDS011;15453;53.692;10.168;2022-11-20T10:42:37;4.50;;;3.13;;
27985;SDS011;15453;53.692;10.168;2022-11-20T10:47:49;4.13;;;3.10;;
27985;SDS011;15453;53.692;10.168;2022-11-20T10:50:16;3.95;;;3.00;;
27985;SDS011;15453;53.692;10.168;2022-11-20T10:53:04;3.63;;;3.10;;
27985;SDS011;15453;53.692;10.168;2022-11-20T10:55:40;4.35;;;3.10;;
27985;SDS011;15453;53.692;10.168;2022-11-20T10:58:12;3.60;;;3.03;;
27985;SDS011;15453;53.692;10.168;2022-11-20T11:00:41;3.53;;;2.85;;
27985;SDS011;15453;53.692;10.168;2022-11-20T11:03:23;4.13;;;3.38;;
27985;SDS011;15453;53.692;10.168;2022-11-20T11:05:54;4.45;;;3.00;;
27985;SDS011;15453;53.692;10.168;2022-11-20T11:08:28;5.20;;;3.20;;
27985;SDS011;15453;53.692;10.168;2022-11-20T11:11:00;3.08;;;2.78;;
27985;SDS011;15453;53.692;10.168;2022-11-20T11:13:45;4.03;;;3.25;;
27985;SDS011;15453;53.692;10.168;2022-11-20T11:16:24;3.38;;;2.92;;
27985;SDS011;15453;53.692;10.168;2022-11-20T11:18:51;5.22;;;3.22;;
27985;SDS011;15453;53.692;10.168;2022-11-20T11:21:21;3.88;;;3.00;;
27985;SDS011;15453;53.692;10.168;2022-11-20T11:23:48;3.97;;;2.67;;
27985;SDS011;15453;53.692;10.168;2022-11-20T11:26:24;3.05;;;2.53;;
27985;SDS011;15453;53.692;10.168;2022-11-20T11:28:57;3.50;;;2.42;;
27985;SDS011;15453;53.692;10.168;2022-11-20T11:31:32;3.00;;;2.55;;
27985;SDS011;15453;53.692;10.168;2022-11-20T11:36:37;3.22;;;2.53;;
27985;SDS011;15453;53.692;10.168;2022-11-20T11:41:40;2.97;;;2.67;;
27985;SDS011;15453;53.692;10.168;2022-11-20T11:44:15;2.50;;;2.30;;
27985;SDS011;15453;53.692;10.168;2022-11-20T11:47:01;3.33;;;2.67;;
27985;SDS011;15453;53.692;10.168;2022-11-20T11:49:28;2.92;;;2.53;;
27985;SDS011;15453;53.692;10.168;2022-11-20T11:51:59;4.53;;;2.65;;
27985;SDS011;15453;53.692;10.168;2022-11-20T11:54:34;3.33;;;2.60;;
27985;SDS011;15453;53.692;10.168;2022-11-20T11:57:05;2.90;;;2.58;;
27985;SDS011;15453;53.692;10.168;2022-11-20T12:00:19;2.53;;;2.30;;
27985;SDS011;15453;53.692;10.168;2022-11-20T12:02:35;2.45;;;2.25;;
27985;SDS011;15453;53.692;10.168;2022-11-20T12:07:47;3.43;;;2.27;;
27985;SDS011;15453;53.692;10.168;2022-11-20T12:10:22;3.15;;;2.10;;
27985;SDS011;15453;53.692;10.168;2022-11-20T12:13:22;2.25;;;1.77;;
27985;SDS011;15453;53.692;10.168;2022-11-20T12:15:50;2.35;;;2.15;;
27985;SDS011;15453;53.692;10.168;2022-11-20T12:18:20;3.38;;;2.45;;
27985;SDS011;15453;53.692;10.168;2022-11-20T12:29:43;2.13;;;1.80;;
27985;SDS011;15453;53.692;10.168;2022-11-20T12:35:00;4.63;;;2.33;;
27985;SDS011;15453;53.692;10.168;2022-11-20T12:37:37;2.22;;;1.88;;
27985;SDS011;15453;53.692;10.168;2022-11-20T12:40:17;2.15;;;1.95;;
27985;SDS011;15453;53.692;10.168;2022-11-20T12:43:24;2.13;;;1.60;;
27985;SDS011;15453;53.692;10.168;2022-11-20T12:46:27;3.65;;;1.67;;
27985;SDS011;15453;53.692;10.168;2022-11-20T12:49:02;2.72;;;1.88;;
27985;SDS011;15453;53.692;10.168;2022-11-20T12:54:46;2.28;;;1.88;;
27985;SDS011;15453;53.692;10.168;2022-11-20T12:57:29;2.88;;;2.03;;
27985;SDS011;15453;53.692;10.168;2022-11-20T13:00:11;2.80;;;1.95;;
27985;SDS011;15453;53.692;10.168;2022-11-20T13:08:18;1.80;;;1.58;;
27985;SDS011;15453;53.692;10.168;2022-11-20T13:10:49;2.30;;;1.60;;
27985;SDS011;15453;53.692;10.168;2022-11-20T13:13:25;2.13;;;1.55;;
27985;SDS011;15453;53.692;10.168;2022-11-20T13:16:12;1.95;;;1.70;;
27985;SDS011;15453;53.692;10.168;2022-11-20T13:18:42;2.10;;;1.73;;
27985;SDS011;15453;53.692;10.168;2022-11-20T13:21:14;2.40;;;2.00;;
27985;SDS011;15453;53.692;10.168;2022-11-20T13:23:44;2.90;;;1.83;;
27985;SDS011;15453;53.692;10.168;2022-11-20T13:26:16;1.95;;;1.75;;
27985;SDS011;15453;53.692;10.168;2022-11-20T13:28:45;11.20;;;6.00;;
27985;SDS011;15453;53.692;10.168;2022-11-20T13:33:59;3.80;;;2.30;;
27985;SDS011;15453;53.692;10.168;2022-11-20T13:36:27;7.10;;;4.03;;
27985;SDS011;15453;53.692;10.168;2022-11-20T13:38:54;3.65;;;2.70;;
27985;SDS011;15453;53.692;10.168;2022-11-20T13:41:25;4.25;;;2.17;;
27985;SDS011;15453;53.692;10.168;2022-11-20T13:43:53;2.25;;;1.80;;
27985;SDS011;15453;53.692;10.168;2022-11-20T13:46:22;3.42;;;1.88;;
27985;SDS011;15453;53.692;10.168;2022-11-20T13:48:49;2.20;;;1.67;;
27985;SDS011;15453;53.692;10.168;2022-11-20T13:51:31;2.40;;;1.60;;
27985;SDS011;15453;53.692;10.168;2022-11-20T13:56:59;2.38;;;1.80;;
27985;SDS011;15453;53.692;10.168;2022-11-20T14:00:05;1.98;;;1.58;;
27985;SDS011;15453;53.692;10.168;2022-11-20T14:02:36;3.35;;;1.63;;
27985;SDS011;15453;53.692;10.168;2022-11-20T14:05:02;2.50;;;1.90;;
27985;SDS011;15453;53.692;10.168;2022-11-20T14:07:35;2.60;;;1.88;;
27985;SDS011;15453;53.692;10.168;2022-11-20T14:10:04;2.72;;;1.90;;
27985;SDS011;15453;53.692;10.168;2022-11-20T14:12:31;2.72;;;1.80;;
27985;SDS011;15453;53.692;10.168;2022-11-20T14:14:58;4.45;;;2.40;;
27985;SDS011;15453;53.692;10.168;2022-11-20T14:17:29;2.95;;;2.03;;
27985;SDS011;15453;53.692;10.168;2022-11-20T14:19:59;2.60;;;1.73;;
27985;SDS011;15453;53.692;10.168;2022-11-20T14:22:28;3.20;;;1.90;;
27985;SDS011;15453;53.692;10.168;2022-11-20T14:25:27;2.75;;;1.83;;
27985;SDS011;15453;53.692;10.168;2022-11-20T14:27:55;2.50;;;1.63;;
27985;SDS011;15453;53.692;10.168;2022-11-20T14:30:24;2.60;;;1.88;;
27985;SDS011;15453;53.692;10.168;2022-11-20T14:32:53;2.50;;;1.80;;
27985;SDS011;15453;53.692;10.168;2022-11-20T14:35:30;2.10;;;1.48;;
27985;SDS011;15453;53.692;10.168;2022-11-20T14:38:00;3.58;;;2.05;;
27985;SDS011;15453;53.692;10.168;2022-11-20T14:42:56;3.05;;;1.80;;
27985;SDS011;15453;53.692;10.168;2022-11-20T14:45:23;3.40;;;2.10;;
27985;SDS011;15453;53.692;10.168;2022-11-20T14:47:48;6.25;;;2.42;;
27985;SDS011;15453;53.692;10.168;2022-11-20T14:50:20;3.22;;;1.85;;
27985;SDS011;15453;53.692;10.168;2022-11-20T14:52:55;2.63;;;2.13;;
27985;SDS011;15453;53.692;10.168;2022-11-20T14:55:29;2.90;;;1.90;;
27985;SDS011;15453;53.692;10.168;2022-11-20T14:57:55;3.35;;;2.22;;
27985;SDS011;15453;53.692;10.168;2022-11-20T15:00:22;2.83;;;2.13;;
27985;SDS011;15453;53.692;10.168;2022-11-20T15:02:49;2.65;;;2.13;;
27985;SDS011;15453;53.692;10.168;2022-11-20T15:05:16;2.55;;;2.00;;
27985;SDS011;15453;53.692;10.168;2022-11-20T15:07:44;3.63;;;2.22;;
27985;SDS011;15453;53.692;10.168;2022-11-20T15:12:47;3.30;;;2.10;;
27985;SDS011;15453;53.692;10.168;2022-11-20T15:15:35;2.55;;;2.08;;
27985;SDS011;15453;53.692;10.168;2022-11-20T15:18:04;4.88;;;2.25;;
27985;SDS011;15453;53.692;10.168;2022-11-20T15:20:30;3.08;;;2.30;;
27985;SDS011;15453;53.692;10.168;2022-11-20T15:22:57;6.13;;;2.60;;
27985;SDS011;15453;53.692;10.168;2022-11-20T15:25:22;5.63;;;2.60;;
27985;SDS011;15453;53.692;10.168;2022-11-20T15:27:49;2.70;;;2.45;;
27985;SDS011;15453;53.692;10.168;2022-11-20T15:30:18;2.90;;;2.10;;
27985;SDS011;15453;53.692;10.168;2022-11-20T15:32:45;2.83;;;2.10;;
27985;SDS011;15453;53.692;10.168;2022-11-20T15:35:11;4.78;;;2.30;;
27985;SDS011;15453;53.692;10.168;2022-11-20T15:37:37;2.63;;;2.00;;
27985;SDS011;15453;53.692;10.168;2022-11-20T15:40:04;5.00;;;2.38;;
27985;SDS011;15453;53.692;10.168;2022-11-20T15:42:30;2.90;;;2.47;;
27985;SDS011;15453;53.692;10.168;2022-11-20T15:44:55;3.65;;;2.53;;
27985;SDS011;15453;53.692;10.168;2022-11-20T15:47:22;4.43;;;2.72;;
27985;SDS011;15453;53.692;10.168;2022-11-20T15:49:53;5.05;;;2.80;;
27985;SDS011;15453;53.692;10.168;2022-11-20T15:52:18;5.00;;;2.60;;
27985;SDS011;15453;53.692;10.168;2022-11-20T15:54:43;4.30;;;2.65;;